Time;durP1;ratioP1;P1;durP2;ratioP2;P2;SDS_P1;SDS_P2;PMS_P1;PMS_P2;Temp;Humidity;BMP_temperature;BMP_pressure;BME280_temperature;BME280_humidity;BME280_pressure;Samples;Min_cycle;Max_cycle;Signal;HPM_P1;HPM_P2
2023/03/22 00:01:24;;;;;;;19.63;11.25;;;12.60;99.90;;;;;;6110121;23;20044;-71
2023/03/22 00:03:51;;;;;;;16.42;10.38;;;12.00;99.90;;;;;;6111792;23;20021;-71
2023/03/22 00:06:20;;;;;;;19.30;10.02;;;11.50;99.90;;;;;;6162165;23;20354;-74
2023/03/22 00:08:50;;;;;;;16.23;9.90;;;12.80;99.90;;;;;;6089035;23;20059;-76
2023/03/22 00:11:17;;;;;;;14.32;9.05;;;12.50;99.90;;;;;;6137021;23;20020;-76
2023/03/22 00:13:45;;;;;;;16.38;10.18;;;11.60;99.90;;;;;;6135223;23;20028;-74
2023/03/22 00:16:12;;;;;;;18.05;10.85;;;11.90;99.90;;;;;;6112408;23;20300;-75
2023/03/22 00:18:38;;;;;;;18.15;10.88;;;12.60;99.90;;;;;;6134843;23;20017;-74
2023/03/22 00:21:05;;;;;;;19.60;9.57;;;11.90;99.90;;;;;;6132804;23;20021;-73
2023/03/22 00:23:30;;;;;;;17.55;9.85;;;11.70;99.90;;;;;;6135815;23;20072;-75
2023/03/22 00:25:56;;;;;;;19.00;9.82;;;11.60;99.90;;;;;;6161266;23;20442;-74
2023/03/22 00:28:23;;;;;;;14.70;9.00;;;11.90;99.90;;;;;;6137865;23;20089;-74
2023/03/22 00:31:00;;;;;;;14.35;8.57;;;11.60;99.90;;;;;;6134864;23;20028;-77
2023/03/22 00:33:26;;;;;;;17.08;9.32;;;11.50;99.90;;;;;;6134146;23;20028;-73
2023/03/22 00:36:05;;;;;;;14.68;8.18;;;12.10;99.90;;;;;;6110170;23;20029;-74
2023/03/22 00:38:40;;;;;;;15.23;8.82;;;11.60;99.90;;;;;;6158269;23;20021;-74
2023/03/22 00:41:17;;;;;;;12.02;7.95;;;11.80;99.90;;;;;;6108861;23;20014;-76
2023/03/22 00:43:44;;;;;;;12.80;7.60;;;11.60;99.90;;;;;;6134495;23;20389;-72
2023/03/22 00:46:10;;;;;;;11.90;7.35;;;12.50;99.90;;;;;;6133534;23;20214;-77
2023/03/22 00:48:36;;;;;;;14.52;7.82;;;12.40;99.90;;;;;;6158170;23;20018;-74
2023/03/22 00:51:03;;;;;;;10.85;7.43;;;12.30;99.90;;;;;;6160989;23;20096;-74
2023/03/22 00:53:28;;;;;;;14.82;6.93;;;12.00;99.90;;;;;;6136530;23;20072;-76
2023/03/22 00:55:55;;;;;;;12.77;6.85;;;12.30;99.90;;;;;;6160630;23;20020;-73
2023/03/22 00:58:21;;;;;;;12.77;6.47;;;12.40;99.90;;;;;;6137386;23;20013;-75
2023/03/22 01:00:47;;;;;;;11.63;5.93;;;11.50;99.90;;;;;;6137757;23;20021;-75
2023/03/22 01:03:14;;;;;;;14.20;6.47;;;12.40;99.90;;;;;;6136789;23;20017;-76
2023/03/22 01:05:43;;;;;;;12.65;6.25;;;12.40;99.90;;;;;;6134967;23;20093;-76
2023/03/22 01:08:09;;;;;;;13.85;6.25;;;12.10;99.90;;;;;;6137138;23;20032;-74
2023/03/22 01:10:37;;;;;;;11.57;5.93;;;12.10;99.90;;;;;;6161440;23;20045;-74
2023/03/22 01:13:03;;;;;;;9.50;5.72;;;12.10;99.90;;;;;;6161637;23;20025;-75
2023/03/22 01:15:29;;;;;;;14.50;6.30;;;11.90;99.90;;;;;;6137002;23;20219;-74
2023/03/22 01:17:55;;;;;;;10.13;5.68;;;11.40;99.90;;;;;;6161906;23;20014;-74
2023/03/22 01:20:21;;;;;;;11.57;6.35;;;11.50;99.90;;;;;;6137523;23;20020;-75
2023/03/22 01:22:46;;;;;;;8.82;5.53;;;11.80;99.90;;;;;;6155478;23;20045;-73
2023/03/22 01:25:14;;;;;;;11.20;5.40;;;11.50;99.90;;;;;;6133052;23;20040;-74
2023/03/22 01:27:40;;;;;;;11.70;4.68;;;11.70;99.90;;;;;;6159484;23;20044;-74
2023/03/22 01:30:07;;;;;;;12.75;5.00;;;11.70;99.90;;;;;;6132756;23;20021;-74
2023/03/22 01:32:34;;;;;;;14.48;5.05;;;12.00;99.90;;;;;;6156923;23;20030;-74
2023/03/22 01:35:01;;;;;;;9.13;4.72;;;11.50;99.90;;;;;;6134347;23;20174;-73
2023/03/22 01:37:27;;;;;;;11.30;5.28;;;11.30;99.90;;;;;;6182325;23;20061;-73
2023/03/22 01:39:56;;;;;;;14.43;5.53;;;12.00;99.90;;;;;;6157659;23;20016;-73
2023/03/22 01:42:23;;;;;;;11.32;5.20;;;11.40;99.90;;;;;;6136277;23;20021;-72
2023/03/22 01:45:15;;;;;;;10.70;4.75;;;12.20;99.90;;;;;;6136383;23;20009;-76
2023/03/22 01:47:55;;;;;;;9.10;4.35;;;11.90;99.90;;;;;;6160706;23;20608;-77
2023/03/22 01:50:21;;;;;;;13.70;5.47;;;11.80;99.90;;;;;;6136803;23;20041;-75
2023/03/22 01:52:49;;;;;;;8.45;4.00;;;12.10;99.90;;;;;;6162446;23;20255;-74
2023/03/22 01:55:17;;;;;;;9.20;4.32;;;12.10;99.90;;;;;;6136827;23;20013;-73
2023/03/22 01:57:44;;;;;;;10.82;4.70;;;11.50;99.90;;;;;;6160866;23;20194;-76
2023/03/22 02:00:17;;;;;;;9.30;3.55;;;11.20;99.90;;;;;;6159841;23;20021;-75
2023/03/22 02:02:45;;;;;;;6.38;3.35;;;11.70;99.90;;;;;;6184111;23;20336;-72
2023/03/22 02:05:11;;;;;;;9.52;3.30;;;11.90;99.90;;;;;;6133567;23;20052;-74
2023/03/22 02:07:39;;;;;;;8.88;3.67;;;11.30;99.90;;;;;;6161312;23;20024;-73
2023/03/22 02:10:11;;;;;;;9.27;3.95;;;11.90;99.90;;;;;;6135018;23;20076;-74
2023/03/22 02:13:01;;;;;;;9.73;3.58;;;11.80;99.90;;;;;;6136179;23;20021;-74
2023/03/22 02:15:39;;;;;;;8.88;3.38;;;11.70;99.90;;;;;;6136374;23;20215;-74
2023/03/22 02:18:37;;;;;;;6.93;3.17;;;11.70;99.90;;;;;;6159923;23;20013;-73
2023/03/22 02:21:06;;;;;;;8.48;3.17;;;11.90;99.90;;;;;;6157516;23;20584;-74
2023/03/22 02:23:49;;;;;;;10.00;3.13;;;11.90;99.90;;;;;;6136400;23;20068;-74
2023/03/22 02:26:34;;;;;;;8.82;3.13;;;11.80;99.90;;;;;;6135551;23;20010;-73
2023/03/22 02:29:37;;;;;;;6.75;2.63;;;11.30;99.90;;;;;;6134191;23;20307;-74
2023/03/22 02:32:18;;;;;;;8.80;2.22;;;11.20;99.90;;;;;;6135584;23;20200;-72
2023/03/22 02:35:08;;;;;;;9.65;2.65;;;11.80;99.90;;;;;;6136067;23;20025;-75
2023/03/22 02:37:52;;;;;;;7.93;2.15;;;11.80;99.90;;;;;;6135856;23;20009;-74
2023/03/22 02:40:27;;;;;;;7.53;2.47;;;11.20;99.90;;;;;;6133444;23;20406;-74
2023/03/22 02:42:53;;;;;;;;;;;11.10;99.90;;;;;;6137244;23;20036;-75
2023/03/22 02:45:49;;;;;;;7.70;2.28;;;11.10;99.90;;;;;;6159680;23;19951;-76
2023/03/22 02:48:29;;;;;;;5.45;2.50;;;11.80;99.90;;;;;;6184356;23;20304;-74
2023/03/22 02:51:02;;;;;;;7.72;3.17;;;11.40;99.90;;;;;;6160207;23;20073;-72
2023/03/22 02:53:40;;;;;;;8.68;2.00;;;11.60;99.90;;;;;;6135639;23;20020;-73
2023/03/22 02:56:34;;;;;;;10.50;2.60;;;11.40;99.90;;;;;;6133365;23;20021;-75
2023/03/22 02:59:03;;;;;;;8.52;2.30;;;11.40;99.90;;;;;;6109298;23;20021;-75
2023/03/22 03:01:53;;;;;;;6.85;2.55;;;11.30;99.90;;;;;;6158331;23;20040;-73
2023/03/22 03:04:27;;;;;;;9.70;2.42;;;11.70;99.90;;;;;;6157250;23;20009;-73
2023/03/22 03:06:56;;;;;;;7.70;2.47;;;11.40;99.90;;;;;;6132799;23;20017;-71
2023/03/22 03:09:23;;;;;;;9.45;2.33;;;11.80;99.90;;;;;;6108397;23;20024;-74
2023/03/22 03:11:51;;;;;;;8.27;2.58;;;11.10;99.90;;;;;;6131799;23;20137;-74
2023/03/22 03:14:26;;;;;;;8.40;2.30;;;11.80;99.90;;;;;;6108643;23;20084;-75
2023/03/22 03:17:20;;;;;;;5.93;2.05;;;11.80;99.90;;;;;;6108199;23;20049;-74
2023/03/22 03:20:16;;;;;;;7.75;2.15;;;11.30;99.90;;;;;;6130939;23;20014;-76
2023/03/22 03:23:21;;;;;;;5.88;2.20;;;11.70;99.90;;;;;;6108307;23;20009;-73
2023/03/22 03:26:42;;;;;;;7.00;2.35;;;11.60;99.90;;;;;;6132494;23;20017;-75
2023/03/22 03:29:31;;;;;;;6.25;2.33;;;11.20;99.90;;;;;;5998390;23;20079;-74
2023/03/22 03:32:40;;;;;;;8.25;2.40;;;11.10;99.90;;;;;;6152831;23;20069;-75
2023/03/22 03:35:09;;;;;;;9.57;2.40;;;11.20;99.90;;;;;;6078684;23;20359;-74
2023/03/22 03:37:46;;;;;;;8.65;2.45;;;11.60;99.90;;;;;;6105187;23;20024;-74
2023/03/22 03:40:19;;;;;;;6.90;1.80;;;11.10;99.90;;;;;;6107909;23;20221;-74
2023/03/22 03:42:51;;;;;;;4.45;1.75;;;10.90;99.90;;;;;;6182653;23;20048;-74
2023/03/22 03:45:20;;;;;;;5.55;2.17;;;11.30;99.90;;;;;;6106894;23;20028;-75
2023/03/22 03:47:55;;;;;;;7.88;2.28;;;11.50;99.90;;;;;;6133254;23;20017;-74
2023/03/22 03:50:22;;;;;;;6.72;2.38;;;11.10;99.90;;;;;;6134269;23;20021;-74
2023/03/22 03:52:48;;;;;;;8.55;2.20;;;11.70;99.90;;;;;;6109884;23;20020;-74
2023/03/22 03:55:14;;;;;;;5.45;2.17;;;11.40;99.90;;;;;;6109555;23;20081;-76
2023/03/22 03:57:40;;;;;;;9.13;3.08;;;11.10;99.90;;;;;;6111549;23;20041;-74
2023/03/22 04:00:06;;;;;;;7.15;2.42;;;11.50;99.90;;;;;;6158605;23;20076;-73
2023/03/22 04:02:32;;;;;;;9.43;2.13;;;11.60;99.90;;;;;;6183561;23;20024;-74
2023/03/22 04:04:58;;;;;;;11.30;2.40;;;11.30;99.90;;;;;;6159304;23;20017;-75
2023/03/22 04:07:24;;;;;;;6.18;2.20;;;11.80;99.90;;;;;;6158663;23;20064;-72
2023/03/22 04:09:50;;;;;;;7.35;2.00;;;11.00;99.90;;;;;;6159287;23;20009;-74
2023/03/22 04:12:15;;;;;;;5.35;1.90;;;11.70;99.90;;;;;;6134314;23;20177;-71
2023/03/22 04:14:41;;;;;;;4.53;1.65;;;11.10;99.90;;;;;;6159335;23;20231;-74
2023/03/22 04:17:08;;;;;;;5.45;2.20;;;11.50;99.90;;;;;;6135005;23;20012;-75
2023/03/22 04:19:34;;;;;;;8.35;2.55;;;11.50;99.90;;;;;;6135738;23;20016;-75
2023/03/22 04:21:59;;;;;;;5.20;2.17;;;11.20;99.90;;;;;;6157968;23;20048;-77
2023/03/22 04:24:25;;;;;;;6.88;2.63;;;11.00;99.90;;;;;;6156484;23;20093;-75
2023/03/22 04:26:51;;;;;;;7.28;2.60;;;11.60;99.90;;;;;;6157714;23;20017;-74
2023/03/22 04:29:17;;;;;;;10.30;3.00;;;11.70;99.90;;;;;;6156838;23;20013;-73
2023/03/22 04:31:43;;;;;;;7.03;2.88;;;11.00;99.90;;;;;;6133504;23;20020;-75
2023/03/22 04:34:09;;;;;;;6.40;2.45;;;11.50;99.90;;;;;;6134745;23;20033;-76
2023/03/22 04:36:38;;;;;;;4.75;2.25;;;11.10;99.90;;;;;;6133425;23;20056;-73
2023/03/22 04:39:13;;;;;;;7.50;2.45;;;11.60;99.90;;;;;;6186236;23;20209;-74
2023/03/22 04:41:38;;;;;;;;;;;11.60;99.90;;;;;;6135390;23;20014;-76
2023/03/22 04:44:05;;;;;;;12.80;3.75;;;11.70;99.90;;;;;;6113083;23;19944;-74
2023/03/22 04:46:36;;;;;;;12.07;3.65;;;11.70;99.90;;;;;;6112880;23;20059;-73
2023/03/22 04:49:02;;;;;;;8.90;3.00;;;11.30;99.90;;;;;;6114521;23;20137;-74
2023/03/22 04:51:29;;;;;;;9.32;3.05;;;11.60;99.90;;;;;;6161597;23;20043;-75
2023/03/22 04:53:55;;;;;;;7.75;2.60;;;11.10;99.90;;;;;;6137207;23;20091;-73
2023/03/22 04:56:21;;;;;;;9.07;2.97;;;11.40;99.90;;;;;;6163311;23;20025;-73
2023/03/22 04:58:47;;;;;;;7.07;3.08;;;11.10;99.90;;;;;;6114352;23;20014;-75
2023/03/22 05:01:15;;;;;;;12.70;4.20;;;11.20;99.90;;;;;;6135210;23;20014;-77
2023/03/22 05:03:41;;;;;;;9.18;4.05;;;11.20;99.90;;;;;;6135896;23;20085;-78
2023/03/22 05:06:08;;;;;;;8.57;4.45;;;11.40;99.90;;;;;;6135601;23;20009;-75
2023/03/22 05:08:35;;;;;;;8.88;5.10;;;11.40;99.90;;;;;;6160727;23;20021;-73
2023/03/22 05:11:19;;;;;;;4.70;3.33;;;11.10;99.90;;;;;;6109556;23;20029;-74
2023/03/22 05:13:45;;;;;;;8.07;3.95;;;11.80;99.90;;;;;;6136516;23;20013;-72
2023/03/22 05:16:11;;;;;;;9.93;4.82;;;11.40;99.90;;;;;;6134911;23;20056;-73
2023/03/22 05:18:41;;;;;;;8.98;4.90;;;11.80;99.90;;;;;;6135571;23;20029;-76
2023/03/22 05:21:16;;;;;;;10.00;5.55;;;11.70;99.90;;;;;;6161465;23;20048;-76
2023/03/22 05:23:44;;;;;;;10.10;5.78;;;12.00;99.90;;;;;;6112966;23;20010;-72
2023/03/22 05:26:14;;;;;;;11.30;5.88;;;11.50;99.90;;;;;;6135966;23;20025;-73
2023/03/22 05:28:41;;;;;;;10.90;6.03;;;11.40;99.90;;;;;;6110602;23;20016;-72
2023/03/22 05:31:08;;;;;;;12.40;7.07;;;12.10;99.90;;;;;;6133476;23;20340;-74
2023/03/22 05:33:34;;;;;;;16.00;7.35;;;12.10;99.90;;;;;;6134498;23;20313;-74
2023/03/22 05:36:00;;;;;;;12.50;7.35;;;11.40;99.90;;;;;;6135323;23;20024;-74
2023/03/22 05:38:26;;;;;;;11.02;7.38;;;12.20;99.90;;;;;;6159442;23;20125;-70
2023/03/22 05:40:51;;;;;;;17.00;7.97;;;11.40;99.90;;;;;;6158667;23;20077;-73
2023/03/22 05:43:17;;;;;;;14.10;8.32;;;12.00;99.90;;;;;;6109996;23;20048;-73
2023/03/22 05:45:44;;;;;;;16.17;8.43;;;11.80;99.90;;;;;;6134751;23;20536;-71
2023/03/22 05:48:11;;;;;;;18.30;9.15;;;11.80;99.90;;;;;;6135426;23;20010;-73
2023/03/22 05:50:37;;;;;;;11.88;7.88;;;11.60;99.90;;;;;;6159302;23;20245;-77
2023/03/22 05:53:03;;;;;;;16.17;8.82;;;11.70;99.90;;;;;;6159822;23;20029;-74
2023/03/22 05:55:30;;;;;;;12.15;8.80;;;11.90;99.90;;;;;;6158314;23;20076;-73
2023/03/22 05:57:57;;;;;;;18.70;10.15;;;11.50;99.90;;;;;;6133987;23;20069;-74
2023/03/22 06:00:23;;;;;;;15.75;9.82;;;12.00;99.90;;;;;;6108895;23;20028;-73
2023/03/22 06:02:51;;;;;;;15.27;9.40;;;11.40;99.90;;;;;;6135436;23;20073;-74
2023/03/22 06:05:17;;;;;;;19.33;9.07;;;11.40;99.90;;;;;;6157703;23;20048;-78
2023/03/22 06:07:43;;;;;;;16.38;9.68;;;11.50;99.90;;;;;;6159971;23;20102;-75
2023/03/22 06:10:12;;;;;;;15.23;9.45;;;12.00;99.90;;;;;;6111769;23;20056;-74
2023/03/22 06:12:38;;;;;;;15.60;9.88;;;12.10;99.90;;;;;;6112533;23;20068;-76
2023/03/22 06:15:04;;;;;;;16.40;9.98;;;11.30;99.90;;;;;;6160261;23;20435;-73
2023/03/22 06:17:30;;;;;;;17.10;9.77;;;12.10;99.90;;;;;;6159894;23;20021;-77
2023/03/22 06:19:56;;;;;;;16.92;10.18;;;12.20;99.90;;;;;;6160678;23;20165;-74
2023/03/22 06:22:22;;;;;;;20.70;10.60;;;12.00;99.90;;;;;;6085993;23;20196;-76
2023/03/22 06:24:48;;;;;;;17.58;9.45;;;11.60;99.90;;;;;;6135132;23;20104;-74
2023/03/22 06:27:15;;;;;;;14.48;10.27;;;12.00;99.90;;;;;;6135013;23;20044;-73
2023/03/22 06:29:40;;;;;;;17.85;10.23;;;12.10;99.90;;;;;;6110448;23;20066;-73
2023/03/22 06:32:06;;;;;;;18.73;9.55;;;12.00;99.90;;;;;;6111427;23;20072;-72
2023/03/22 06:34:32;;;;;;;14.13;9.25;;;12.30;99.90;;;;;;6159869;23;20381;-74
2023/03/22 06:36:58;;;;;;;15.82;9.82;;;11.80;99.90;;;;;;6160336;23;20097;-75
2023/03/22 06:39:24;;;;;;;18.15;9.77;;;11.70;99.90;;;;;;6158835;23;20013;-74
2023/03/22 06:41:50;;;;;;;15.35;10.02;;;11.90;99.90;;;;;;6132896;23;20014;-74
2023/03/22 06:44:17;;;;;;;14.50;9.68;;;12.10;99.90;;;;;;6158370;23;20424;-72
2023/03/22 06:46:43;;;;;;;16.10;8.95;;;11.60;99.90;;;;;;6132702;23;20024;-74
2023/03/22 06:49:09;;;;;;;16.60;9.50;;;12.20;99.90;;;;;;6134046;23;20009;-76
2023/03/22 06:51:35;;;;;;;18.35;10.07;;;12.20;99.90;;;;;;6156170;23;20063;-75
2023/03/22 06:54:01;;;;;;;16.13;10.23;;;11.60;99.90;;;;;;6132720;23;20020;-73
2023/03/22 06:56:26;;;;;;;15.50;9.68;;;12.40;99.90;;;;;;6083655;23;20288;-73
2023/03/22 06:58:53;;;;;;;17.30;10.07;;;12.30;99.90;;;;;;6159311;23;20048;-71
2023/03/22 07:01:22;;;;;;;18.20;9.43;;;12.50;99.90;;;;;;6134737;23;20028;-74
2023/03/22 07:03:48;;;;;;;15.57;9.90;;;12.30;99.90;;;;;;6135244;23;20044;-73
2023/03/22 07:06:14;;;;;;;13.68;8.65;;;12.00;99.90;;;;;;6159665;23;20308;-74
2023/03/22 07:08:40;;;;;;;18.45;10.30;;;12.40;99.90;;;;;;6110622;23;20036;-73
2023/03/22 07:11:06;;;;;;;14.63;8.93;;;12.30;99.90;;;;;;6135929;23;20217;-73
2023/03/22 07:13:32;;;;;;;16.13;10.27;;;12.70;99.90;;;;;;6159874;23;20249;-75
2023/03/22 07:15:59;;;;;;;15.40;9.38;;;12.10;99.90;;;;;;6134018;23;20028;-74
2023/03/22 07:18:27;;;;;;;15.60;9.85;;;12.70;99.90;;;;;;6159868;23;20013;-77
2023/03/22 07:20:52;;;;;;;13.35;8.48;;;12.70;99.90;;;;;;6110315;23;20177;-73
2023/03/22 07:23:19;;;;;;;13.73;9.70;;;12.90;99.90;;;;;;6134374;23;20088;-73
2023/03/22 07:25:45;;;;;;;15.45;9.07;;;12.70;99.90;;;;;;6135826;23;20016;-75
2023/03/22 07:28:11;;;;;;;12.70;8.85;;;12.60;99.90;;;;;;6135445;23;20149;-74
2023/03/22 07:30:38;;;;;;;14.25;9.18;;;12.80;99.90;;;;;;6135070;23;20221;-75
2023/03/22 07:33:05;;;;;;;12.90;8.25;;;12.70;99.90;;;;;;6134909;23;20013;-74
2023/03/22 07:35:31;;;;;;;14.73;9.07;;;12.60;99.90;;;;;;6134432;23;20044;-74
2023/03/22 07:37:57;;;;;;;17.08;8.55;;;12.90;99.90;;;;;;6159365;23;20021;-74
2023/03/22 07:40:24;;;;;;;12.88;8.57;;;12.60;99.90;;;;;;6160018;23;20025;-72
2023/03/22 07:42:50;;;;;;;12.02;8.85;;;12.30;99.90;;;;;;6159788;23;20037;-74
2023/03/22 07:45:16;;;;;;;13.88;8.55;;;12.00;99.90;;;;;;6158254;23;20010;-75
2023/03/22 07:47:46;;;;;;;16.13;9.18;;;12.10;99.90;;;;;;6157772;23;20088;-75
2023/03/22 07:50:16;;;;;;;12.10;8.25;;;12.70;99.90;;;;;;6134303;23;20069;-74
2023/03/22 07:52:43;;;;;;;15.45;8.25;;;12.70;99.90;;;;;;6134354;23;20013;-79
2023/03/22 07:55:10;;;;;;;18.67;8.45;;;12.50;99.90;;;;;;6156967;23;20013;-77
2023/03/22 07:57:37;;;;;;;12.70;7.70;;;12.20;99.90;;;;;;6158480;23;20019;-73
2023/03/22 08:00:05;;;;;;;13.13;9.13;;;12.60;99.90;;;;;;6110379;23;20024;-73
2023/03/22 08:02:30;;;;;;;13.25;7.32;;;12.60;99.90;;;;;;6135457;23;20009;-77
2023/03/22 08:04:56;;;;;;;12.00;7.32;;;12.20;99.90;;;;;;6135576;23;20032;-76
2023/03/22 08:07:24;;;;;;;10.70;7.13;;;12.10;99.90;;;;;;6135539;23;20169;-73
2023/03/22 08:09:50;;;;;;;12.85;7.15;;;12.10;99.90;;;;;;6185855;23;20220;-75
2023/03/22 08:12:22;;;;;;;13.13;7.55;;;12.60;99.90;;;;;;6111319;23;20009;-76
2023/03/22 08:14:49;;;;;;;11.25;6.95;;;12.30;99.90;;;;;;6155174;23;20045;-71
2023/03/22 08:20:28;;;;;;;12.00;7.22;;;12.60;99.90;;;;;;6155373;23;20028;-73
2023/03/22 08:22:54;;;;;;;14.40;7.03;;;13.20;99.90;;;;;;6159146;23;20098;-77
2023/03/22 08:25:31;;;;;;;13.13;6.90;;;13.10;99.90;;;;;;6182841;23;20017;-78
2023/03/22 08:28:23;;;;;;;11.20;6.47;;;12.80;99.90;;;;;;6160467;23;20017;-76
2023/03/22 08:30:49;;;;;;;11.85;6.40;;;12.80;99.90;;;;;;6108483;23;20029;-73
2023/03/22 08:33:15;;;;;;;15.82;6.10;;;12.40;99.90;;;;;;6160010;23;20099;-76
2023/03/22 08:35:41;;;;;;;10.60;5.90;;;12.60;99.90;;;;;;6110208;23;20025;-72
2023/03/22 08:38:07;;;;;;;9.82;5.88;;;12.40;99.90;;;;;;6159302;23;20027;-75
2023/03/22 08:40:36;;;;;;;10.45;5.68;;;12.90;99.90;;;;;;6135621;23;20018;-75
2023/03/22 08:43:03;;;;;;;12.27;6.03;;;12.60;99.90;;;;;;6135698;23;20272;-75
2023/03/22 08:45:29;;;;;;;12.20;6.22;;;12.80;99.90;;;;;;6134712;23;20045;-73
2023/03/22 08:48:26;;;;;;;10.88;5.25;;;12.60;99.90;;;;;;6159067;23;20017;-76
2023/03/22 08:50:56;;;;;;;11.82;5.80;;;12.80;99.90;;;;;;6158653;23;20013;-72
2023/03/22 08:53:46;;;;;;;10.07;5.53;;;12.90;99.90;;;;;;6135032;23;20013;-72
2023/03/22 08:56:15;;;;;;;8.80;5.00;;;13.00;99.90;;;;;;6155307;23;20079;-76
2023/03/22 08:58:45;;;;;;;12.20;4.85;;;12.90;99.90;;;;;;6135419;23;20021;-71
2023/03/22 09:01:15;;;;;;;12.07;5.47;;;13.00;99.90;;;;;;6135962;23;20022;-72
2023/03/22 09:03:41;;;;;;;9.30;5.03;;;13.00;99.90;;;;;;6134373;23;20532;-74
2023/03/22 09:06:07;;;;;;;9.80;5.18;;;13.10;99.90;;;;;;6184886;23;20048;-74
2023/03/22 09:08:34;;;;;;;10.40;4.88;;;13.00;99.90;;;;;;6159272;23;20006;-75
2023/03/22 09:11:00;;;;;;;11.38;5.28;;;13.40;99.90;;;;;;6136189;23;20024;-74
2023/03/22 09:13:25;;;;;;;6.75;4.78;;;13.30;99.90;;;;;;6159122;23;20013;-76
2023/03/22 09:15:51;;;;;;;9.88;4.50;;;13.30;99.90;;;;;;6158927;23;20185;-76
2023/03/22 09:18:17;;;;;;;7.97;4.82;;;13.20;99.90;;;;;;6160302;23;20200;-72
2023/03/22 09:20:44;;;;;;;9.88;5.38;;;13.00;99.90;;;;;;6134634;23;20073;-75
2023/03/22 09:23:11;;;;;;;11.48;4.22;;;13.30;99.90;;;;;;6159924;23;20013;-74
2023/03/22 09:25:37;;;;;;;10.60;3.95;;;13.30;99.90;;;;;;6158951;23;20009;-75
2023/03/22 09:28:03;;;;;;;10.95;4.97;;;12.90;99.90;;;;;;6160539;23;20165;-73
2023/03/22 09:30:29;;;;;;;8.05;4.50;;;12.90;99.90;;;;;;6133944;23;20028;-73
2023/03/22 09:32:55;;;;;;;10.32;4.35;;;13.00;99.90;;;;;;6160105;23;20223;-74
2023/03/22 09:35:21;;;;;;;6.80;4.07;;;13.10;99.90;;;;;;6159975;23;20080;-73
2023/03/22 09:37:48;;;;;;;8.95;4.50;;;13.20;99.90;;;;;;6135128;23;20048;-76
2023/03/22 09:40:14;;;;;;;10.32;3.80;;;13.10;99.90;;;;;;6134527;23;20182;-75
2023/03/22 09:42:45;;;;;;;8.73;4.22;;;13.10;99.90;;;;;;6135210;23;20009;-74
2023/03/22 09:45:17;;;;;;;7.97;4.20;;;13.30;99.90;;;;;;6110521;23;20005;-75
2023/03/22 09:47:45;;;;;;;11.25;4.00;;;13.10;99.90;;;;;;6184160;23;20179;-75
2023/03/22 09:50:14;;;;;;;10.90;4.28;;;13.10;99.90;;;;;;6110697;23;20020;-73
2023/03/22 09:52:42;;;;;;;6.95;3.47;;;13.20;99.90;;;;;;6110590;23;20096;-73
2023/03/22 09:55:25;;;;;;;8.57;3.70;;;13.30;99.90;;;;;;6135863;23;20072;-75
2023/03/22 09:58:31;;;;;;;8.30;3.83;;;13.10;99.90;;;;;;6134203;23;20108;-74
2023/03/22 10:01:03;;;;;;;7.50;3.70;;;13.20;99.90;;;;;;6099528;23;20020;-76
2023/03/22 10:03:41;;;;;;;11.80;4.15;;;12.50;99.90;;;;;;6135383;23;20017;-76
2023/03/22 10:06:19;;;;;;;8.02;3.78;;;13.10;99.90;;;;;;6134600;23;20044;-72
2023/03/22 10:08:54;;;;;;;8.63;3.90;;;13.10;99.90;;;;;;6109952;23;20626;-71
2023/03/22 10:11:32;;;;;;;7.50;3.70;;;12.80;99.90;;;;;;6134576;23;20021;-74
2023/03/22 10:14:28;;;;;;;5.53;3.60;;;12.80;99.90;;;;;;6108807;23;20009;-78
2023/03/22 10:16:55;;;;;;;;;;;12.60;99.90;;;;;;6134502;23;20021;-74
2023/03/22 10:19:24;;;;;;;10.32;3.90;;;12.50;99.90;;;;;;6110949;23;20175;-74
2023/03/22 10:21:53;;;;;;;11.25;4.10;;;12.60;99.90;;;;;;6159239;23;20013;-76
2023/03/22 10:24:28;;;;;;;8.43;3.92;;;12.50;99.90;;;;;;6184882;23;20017;-76
2023/03/22 10:26:55;;;;;;;9.27;4.05;;;12.60;99.90;;;;;;6111077;23;20357;-74
2023/03/22 10:29:27;;;;;;;7.85;4.40;;;12.40;99.90;;;;;;6135497;23;20014;-74
2023/03/22 10:31:54;;;;;;;10.15;4.20;;;12.40;99.90;;;;;;6110479;23;20071;-73
2023/03/22 10:34:32;;;;;;;10.60;4.63;;;12.20;99.90;;;;;;6160021;23;20204;-74
2023/03/22 10:37:02;;;;;;;8.60;4.00;;;12.50;99.90;;;;;;6135144;23;20031;-73
2023/03/22 10:39:37;;;;;;;6.40;4.07;;;12.50;99.90;;;;;;6184268;23;20323;-73
2023/03/22 10:42:12;;;;;;;8.18;3.78;;;12.30;99.90;;;;;;6109240;23;20056;-73
2023/03/22 10:44:53;;;;;;;8.07;4.32;;;12.10;99.90;;;;;;6183436;23;20017;-73
2023/03/22 10:47:29;;;;;;;8.70;3.80;;;12.00;99.90;;;;;;6134061;23;20177;-73
2023/03/22 10:49:57;;;;;;;8.38;4.28;;;12.30;99.90;;;;;;6135218;23;20009;-72
2023/03/22 10:52:29;;;;;;;10.98;4.47;;;12.10;99.90;;;;;;6134938;23;20010;-72
2023/03/22 10:54:56;;;;;;;8.15;4.60;;;11.80;99.90;;;;;;6134475;23;20016;-74
2023/03/22 10:57:25;;;;;;;8.27;4.60;;;12.50;99.90;;;;;;6159158;23;20386;-75
2023/03/22 10:59:54;;;;;;;7.65;4.70;;;11.90;99.90;;;;;;6133474;23;20013;-73
2023/03/22 11:02:29;;;;;;;8.32;4.53;;;12.30;99.90;;;;;;6134971;23;20018;-74
2023/03/22 11:05:01;;;;;;;5.85;4.00;;;12.00;99.90;;;;;;6135007;23;20300;-74
2023/03/22 11:07:30;;;;;;;;;;;11.90;99.90;;;;;;6134942;23;20010;-74
2023/03/22 11:10:20;;;;;;;12.30;4.70;;;12.10;99.90;;;;;;6159060;23;19912;-73
2023/03/22 11:13:06;;;;;;;9.15;4.80;;;12.50;99.90;;;;;;6105942;23;20017;-74
2023/03/22 11:15:35;;;;;;;6.78;4.10;;;12.40;99.90;;;;;;6134279;23;20032;-75
2023/03/22 11:18:11;;;;;;;9.05;4.07;;;11.90;99.90;;;;;;6134526;23;20017;-74
2023/03/22 11:20:40;;;;;;;10.07;4.82;;;11.80;99.90;;;;;;6134585;23;20060;-74
2023/03/22 11:23:23;;;;;;;8.85;4.30;;;12.50;99.90;;;;;;6159133;23;20009;-76
2023/03/22 11:25:51;;;;;;;9.75;4.13;;;12.60;99.90;;;;;;6116484;23;20009;-74
2023/03/22 11:28:25;;;;;;;8.55;4.30;;;12.70;99.90;;;;;;6109773;23;20010;-72
2023/03/22 11:31:02;;;;;;;9.07;3.97;;;12.20;99.90;;;;;;6133475;23;20576;-73
2023/03/22 11:33:28;;;;;;;8.07;4.20;;;12.70;99.90;;;;;;6134536;23;20072;-73
2023/03/22 11:35:57;;;;;;;6.88;3.83;;;12.40;99.90;;;;;;6133792;23;20029;-72
2023/03/22 11:38:35;;;;;;;7.53;4.72;;;12.60;99.90;;;;;;6110460;23;20021;-74
2023/03/22 11:41:03;;;;;;;9.55;4.20;;;12.10;99.90;;;;;;6133990;23;20017;-77
2023/03/22 11:43:42;;;;;;;7.22;4.88;;;12.00;99.90;;;;;;6134000;23;20014;-75
2023/03/22 11:46:11;;;;;;;5.63;3.70;;;11.90;99.90;;;;;;6159379;23;20276;-75
2023/03/22 11:48:40;;;;;;;7.15;4.00;;;12.60;99.90;;;;;;6183245;23;20009;-75
2023/03/22 11:51:10;;;;;;;10.25;3.88;;;12.10;99.90;;;;;;6110353;23;20271;-74
2023/03/22 11:53:44;;;;;;;6.95;3.70;;;12.40;99.90;;;;;;6132947;23;20013;-74
2023/03/22 11:56:14;;;;;;;9.10;4.03;;;12.10;99.90;;;;;;6110052;23;20014;-75
2023/03/22 11:59:04;;;;;;;6.55;4.03;;;12.40;99.90;;;;;;6133824;23;20207;-74
2023/03/22 12:01:43;;;;;;;7.32;3.20;;;12.10;99.90;;;;;;6134562;23;20254;-74
2023/03/22 12:04:40;;;;;;;8.18;3.97;;;12.20;99.90;;;;;;6158727;23;20009;-74
2023/03/22 12:07:15;;;;;;;8.68;3.80;;;13.90;99.90;;;;;;6130402;23;20010;-75
2023/03/22 12:09:48;;;;;;;9.43;4.00;;;12.60;99.90;;;;;;6134025;23;20037;-74
2023/03/22 12:12:51;;;;;;;5.32;3.55;;;12.50;99.90;;;;;;6110742;23;20013;-74
2023/03/22 12:15:23;;;;;;;6.75;3.72;;;12.50;99.90;;;;;;6158509;23;20014;-72
2023/03/22 12:17:57;;;;;;;8.93;3.40;;;12.40;99.90;;;;;;6183178;23;20022;-74
2023/03/22 12:20:54;;;;;;;8.13;4.03;;;12.50;99.90;;;;;;6159339;23;20021;-73
2023/03/22 12:23:29;;;;;;;7.55;3.58;;;12.50;99.90;;;;;;6134560;23;20016;-74
2023/03/22 12:26:12;;;;;;;5.25;3.58;;;12.10;99.90;;;;;;6133645;23;20300;-72
2023/03/22 12:28:47;;;;;;;7.43;3.95;;;13.10;99.90;;;;;;6133736;23;20017;-74
2023/03/22 12:31:18;;;;;;;5.28;3.35;;;12.30;99.90;;;;;;6134286;23;20284;-73
2023/03/22 12:33:53;;;;;;;8.10;3.38;;;12.00;99.90;;;;;;6108760;23;20052;-74
2023/03/22 12:36:25;;;;;;;8.15;3.45;;;12.20;99.90;;;;;;6159629;23;20033;-75
2023/03/22 12:39:14;;;;;;;8.65;3.50;;;12.70;99.90;;;;;;6133729;23;20020;-73
2023/03/22 12:41:54;;;;;;;7.97;3.50;;;10.90;99.90;;;;;;6133337;23;20013;-76
2023/03/22 12:44:36;;;;;;;7.82;4.07;;;12.20;99.90;;;;;;6133949;23;20009;-73
2023/03/22 12:47:21;;;;;;;9.70;4.10;;;12.80;99.90;;;;;;6110181;23;20017;-73
2023/03/22 12:50:02;;;;;;;;;;;11.90;99.90;;;;;;6133863;23;20024;-74
2023/03/22 12:52:47;;;;;;;7.25;4.20;;;12.40;99.90;;;;;;6134090;23;19982;-73
2023/03/22 12:55:22;;;;;;;7.72;4.10;;;12.10;99.90;;;;;;6133919;23;20020;-74
2023/03/22 12:57:51;;;;;;;9.07;4.57;;;12.80;99.90;;;;;;6134019;23;20434;-75
2023/03/22 13:00:26;;;;;;;9.35;4.47;;;12.00;99.90;;;;;;6134000;23;20195;-72
2023/03/22 13:03:04;;;;;;;9.10;4.85;;;12.80;99.90;;;;;;6109295;23;20225;-74
2023/03/22 13:05:33;;;;;;;6.45;4.28;;;12.00;99.90;;;;;;6159138;23;20130;-72
2023/03/22 13:08:06;;;;;;;8.40;4.97;;;12.90;99.90;;;;;;6134558;23;20017;-74